createdAt,value
2019-04-10T00:00:18.889Z,14.53
2019-04-10T00:00:59.281Z,14.53
2019-04-10T00:01:40.521Z,14.49
2019-04-10T00:02:19.954Z,14.59
2019-04-10T00:03:00.343Z,14.64
2019-04-10T00:03:43.369Z,14.61
2019-04-10T00:04:21.187Z,14.59
2019-04-10T00:05:01.544Z,14.61
2019-04-10T00:05:42.522Z,14.57
2019-04-10T00:06:22.342Z,14.61
2019-04-10T00:07:11.747Z,14.54
2019-04-10T00:07:43.812Z,14.59
2019-04-10T00:08:23.578Z,14.49
2019-04-10T00:09:04.016Z,14.49
2019-04-10T00:09:45.354Z,14.53
2019-04-10T00:10:24.818Z,14.56
2019-04-10T00:11:05.221Z,14.49
2019-04-10T00:11:45.623Z,14.57
2019-04-10T00:12:26.028Z,14.49
2019-04-10T00:13:06.713Z,14.48
2019-04-10T00:13:47.001Z,14.52
2019-04-10T00:14:28.034Z,14.48
2019-04-10T00:15:07.701Z,14.54
2019-04-10T00:15:48.694Z,14.56
2019-04-10T00:16:28.486Z,14.48
2019-04-10T00:17:09.001Z,14.48
2019-04-10T00:17:49.896Z,14.49
2019-04-10T00:18:30.295Z,14.52
2019-04-10T00:19:10.727Z,14.45
2019-04-10T00:19:51.898Z,14.45
2019-04-10T00:20:32.244Z,14.46
2019-04-10T00:21:12.006Z,14.42
2019-04-10T00:21:52.413Z,14.44
2019-04-10T00:22:33.913Z,14.39
2019-04-10T00:23:13.259Z,14.41
2019-04-10T00:25:10.880Z,14.48
2019-04-10T00:25:52.904Z,14.45
2019-04-10T00:26:32.358Z,14.44
2019-04-10T00:27:12.753Z,14.39
2019-04-10T00:27:54.817Z,14.41
2019-04-10T00:28:34.419Z,14.3
2019-04-10T00:29:14.826Z,14.39
2019-04-10T00:29:56.200Z,14.38
2019-04-10T00:30:35.684Z,14.38
2019-04-10T00:31:16.130Z,14.39
2019-04-10T00:31:56.546Z,14.3
2019-04-10T00:32:36.967Z,14.39
2019-04-10T00:33:17.374Z,14.27
2019-04-10T00:34:54.700Z,14.39
2019-04-10T00:35:35.226Z,14.27
2019-04-10T00:36:16.180Z,14.23
2019-04-10T00:36:55.920Z,14.24
2019-04-10T00:37:37.050Z,14.26
2019-04-10T00:38:17.640Z,14.16
2019-04-10T00:38:57.984Z,14.13
2019-04-10T00:39:37.521Z,14.12
2019-04-10T00:40:17.910Z,14.09
2019-04-10T00:40:58.315Z,14.11
2019-04-10T00:41:38.725Z,14.16
2019-04-10T00:42:19.111Z,14.12
2019-04-10T00:43:00.257Z,14.06
2019-04-10T00:43:40.150Z,14.05
2019-04-10T00:44:20.324Z,14.05
2019-04-10T00:45:01.937Z,14.09
2019-04-10T00:45:41.831Z,14.12
2019-04-10T00:46:22.130Z,14.16
2019-04-10T00:47:02.409Z,14.17
2019-04-10T00:47:43.400Z,14.13
2019-04-10T00:48:23.839Z,14.09
2019-04-10T00:49:03.121Z,14.12
2019-04-10T00:49:44.054Z,14.06
2019-04-10T00:50:23.975Z,14.13
2019-04-10T00:51:04.386Z,14.13
2019-04-10T00:54:00.435Z,14.04
2019-04-10T00:54:41.379Z,13.96
2019-04-10T00:55:21.867Z,13.91
2019-04-10T00:56:02.179Z,13.91
2019-04-10T00:56:43.324Z,14.02
2019-04-10T00:57:23.535Z,14.01
2019-04-10T00:58:03.656Z,13.96
2019-04-10T00:58:43.796Z,13.91
2019-04-10T00:59:24.211Z,13.94
2019-04-10T01:00:06.546Z,13.93
2019-04-10T01:00:47.596Z,13.94
2019-04-10T01:01:27.675Z,13.88
2019-04-10T01:02:08.017Z,13.9
2019-04-10T01:02:49.082Z,13.98
2019-04-10T01:03:29.475Z,13.88
2019-04-10T01:04:10.545Z,13.88
2019-04-10T01:04:49.435Z,13.86
2019-04-10T01:05:29.820Z,13.88
2019-04-10T01:06:10.249Z,13.87
2019-04-10T01:06:50.704Z,13.93
2019-04-10T01:07:36.387Z,13.91
2019-04-10T01:08:12.635Z,13.86
2019-04-10T01:08:57.325Z,13.76
2019-04-10T01:09:40.227Z,13.72
2019-04-10T01:10:20.727Z,13.68
2019-04-10T01:11:01.138Z,13.71
2019-04-10T01:11:41.587Z,13.66
2019-04-10T01:12:21.979Z,13.65
2019-04-10T01:13:02.741Z,13.59
2019-04-10T01:13:43.111Z,13.62
2019-04-10T01:14:23.469Z,13.55
2019-04-10T01:15:04.642Z,13.51
2019-04-10T01:15:44.757Z,13.5
2019-04-10T01:16:25.063Z,13.55
2019-04-10T01:17:06.069Z,13.61
2019-04-10T01:17:46.322Z,13.59
2019-04-10T01:18:26.785Z,13.68
2019-04-10T01:19:06.227Z,13.68
2019-04-10T01:19:46.650Z,13.66
2019-04-10T01:20:27.052Z,13.71
2019-04-10T01:21:08.284Z,13.76
2019-04-10T01:21:47.901Z,13.76
2019-04-10T01:22:28.310Z,13.83
2019-04-10T01:23:09.818Z,13.81
2019-04-10T01:23:49.196Z,13.81
2019-04-10T01:24:29.984Z,13.84
2019-04-10T01:25:10.308Z,13.84
2019-04-10T01:25:50.575Z,13.75
2019-04-10T01:26:31.592Z,13.73
2019-04-10T01:27:11.754Z,13.62
2019-04-10T01:27:52.168Z,13.68
2019-04-10T01:28:33.050Z,13.68
2019-04-10T01:29:13.392Z,13.72
2019-04-10T01:29:53.657Z,13.71
2019-04-10T01:30:33.380Z,13.68
2019-04-10T01:31:14.953Z,13.68
2019-04-10T01:31:54.973Z,13.75
2019-04-10T01:32:34.654Z,13.76
2019-04-10T01:33:15.088Z,13.8
2019-04-10T01:33:55.518Z,13.72
2019-04-10T01:34:35.954Z,13.69
2019-04-10T01:35:16.390Z,13.61
2019-04-10T01:35:56.749Z,13.65
2019-04-10T01:36:37.470Z,13.69
2019-04-10T01:37:18.634Z,13.55
2019-04-10T01:38:00.976Z,13.59
2019-04-10T01:38:38.391Z,13.5
2019-04-10T01:39:19.115Z,13.44
2019-04-10T01:39:59.276Z,13.41
2019-04-10T01:40:39.684Z,13.46
2019-04-10T01:41:20.090Z,13.31
2019-04-10T01:42:00.644Z,13.41
2019-04-10T01:42:40.951Z,13.38
2019-04-10T01:43:22.426Z,13.36
2019-04-10T01:44:01.819Z,13.38
2019-04-10T01:44:42.225Z,13.24
2019-04-10T01:45:22.653Z,13.27
2019-04-10T01:46:04.046Z,13.24
2019-04-10T01:46:43.515Z,13.32
2019-04-10T01:47:23.928Z,13.32
2019-04-10T01:48:04.343Z,13.31
2019-04-10T01:48:44.757Z,13.39
2019-04-10T01:49:25.959Z,13.32
2019-04-10T01:50:06.355Z,13.39
2019-04-10T01:50:46.462Z,13.35
2019-04-10T01:51:27.465Z,13.31
2019-04-10T01:52:06.997Z,13.39
2019-04-10T01:52:47.282Z,13.38
2019-04-10T01:53:28.013Z,13.35
2019-04-10T01:54:09.005Z,13.36
2019-04-10T01:54:49.222Z,13.32
2019-04-10T01:55:31.306Z,13.38
2019-04-10T01:56:21.074Z,13.38
2019-04-10T01:56:50.132Z,13.32
2019-04-10T01:57:30.485Z,13.36
2019-04-10T01:58:10.687Z,13.43
2019-04-10T01:58:51.666Z,13.27
2019-04-10T01:59:32.086Z,13.29
2019-04-10T02:00:11.940Z,13.32
2019-04-10T02:02:25.478Z,13.21
2019-04-10T02:03:05.978Z,13.21
2019-04-10T02:03:46.575Z,13.13
2019-04-10T02:04:26.859Z,13.07
2019-04-10T02:05:08.086Z,13.16
2019-04-10T02:05:47.674Z,13.12
2019-04-10T02:06:28.088Z,13.12
2019-04-10T02:07:09.397Z,13.12
2019-04-10T02:08:00.890Z,13.04
2019-04-10T02:08:29.820Z,12.99
2019-04-10T02:09:10.823Z,13.06
2019-04-10T02:09:50.153Z,13.06
2019-04-10T02:10:30.591Z,13.04
2019-04-10T02:11:11.022Z,13.12
2019-04-10T02:11:52.336Z,13.12
2019-04-10T02:12:31.857Z,13.1
2019-04-10T02:13:12.262Z,13.09
2019-04-10T02:13:52.659Z,12.99
2019-04-10T02:14:33.200Z,13.07
2019-04-10T02:15:14.418Z,12.99
2019-04-10T02:15:54.448Z,12.99
2019-04-10T02:16:34.726Z,12.98
2019-04-10T02:17:14.782Z,13.03
2019-04-10T02:17:55.172Z,12.96
2019-04-10T02:18:35.512Z,12.98
2019-04-10T02:19:16.334Z,12.89
2019-04-10T02:19:56.780Z,12.92
2019-04-10T02:20:36.781Z,12.84
2019-04-10T02:21:17.942Z,12.8
2019-04-10T02:21:58.148Z,12.96
2019-04-10T02:22:38.431Z,12.89
2019-04-10T02:23:19.303Z,12.84
2019-04-10T02:23:58.802Z,12.87
2019-04-10T02:25:56.961Z,12.73
2019-04-10T02:26:37.942Z,12.59
2019-04-10T02:27:18.237Z,12.69
2019-04-10T02:27:58.506Z,12.7
2019-04-10T02:28:37.960Z,12.61
2019-04-10T02:29:18.389Z,12.67
2019-04-10T02:29:59.843Z,12.59
2019-04-10T02:30:41.824Z,12.61
2019-04-10T02:31:21.500Z,12.58
2019-04-10T02:32:02.036Z,12.62
2019-04-10T02:32:45.086Z,12.61
2019-04-10T02:33:23.218Z,12.71
2019-04-10T02:34:02.191Z,12.71
2019-04-10T02:34:43.763Z,12.58
2019-04-10T02:35:24.468Z,12.71
2019-04-10T02:36:03.793Z,12.58
2019-04-10T02:36:44.493Z,12.58
2019-04-10T02:37:25.008Z,12.54
2019-04-10T02:38:21.065Z,12.58
2019-04-10T02:38:58.716Z,12.51
2019-04-10T02:39:34.019Z,12.55
2019-04-10T02:40:07.580Z,12.56
2019-04-10T02:40:47.440Z,12.43
2019-04-10T02:41:27.897Z,12.48
2019-04-10T02:42:08.199Z,12.44
2019-04-10T02:42:49.147Z,12.52
2019-04-10T02:43:29.226Z,12.46
2019-04-10T02:44:09.960Z,12.48
2019-04-10T02:44:50.338Z,12.43
2019-04-10T02:45:30.133Z,12.4
2019-04-10T02:46:11.272Z,12.38
2019-04-10T02:46:51.808Z,12.43
2019-04-10T02:47:30.788Z,12.4
2019-04-10T02:48:12.124Z,12.48
2019-04-10T02:48:52.018Z,12.4
2019-04-10T02:49:32.152Z,12.37
2019-04-10T02:50:13.991Z,12.33
2019-04-10T02:50:53.308Z,12.23
2019-04-10T02:51:34.841Z,12.18
2019-04-10T02:52:16.621Z,12.11
2019-04-10T02:52:57.096Z,12.16
2019-04-10T02:53:37.380Z,12.15
2019-04-10T02:54:17.532Z,12.12
2019-04-10T02:54:57.782Z,12.12
2019-04-10T02:55:38.553Z,12.11
2019-04-10T02:56:17.979Z,12.12
2019-04-10T02:56:58.058Z,12.11
2019-04-10T02:57:41.351Z,12.15
2019-04-10T02:58:22.135Z,12.18
2019-04-10T02:59:02.400Z,12.11
2019-04-10T02:59:43.111Z,12.18
2019-04-10T03:00:22.813Z,12.22
2019-04-10T03:01:03.104Z,12.23
2019-04-10T03:01:44.004Z,12.33
2019-04-10T03:02:24.250Z,12.3
2019-04-10T03:03:04.211Z,12.36
2019-04-10T03:03:44.636Z,12.38
2019-04-10T03:04:24.607Z,12.4
2019-04-10T03:05:04.950Z,12.33
2019-04-10T03:05:46.558Z,12.43
2019-04-10T03:06:27.025Z,12.4
2019-04-10T03:07:07.561Z,12.33
2019-04-10T03:07:48.161Z,12.33
2019-04-10T03:08:40.933Z,12.33
2019-04-10T03:09:25.731Z,12.31
2019-04-10T03:10:00.127Z,12.3
2019-04-10T03:10:36.522Z,12.3
2019-04-10T03:11:11.635Z,12.34
2019-04-10T03:11:49.829Z,12.23
2019-04-10T03:12:30.114Z,12.29
2019-04-10T03:13:11.449Z,12.18
2019-04-10T03:13:51.179Z,12.12
2019-04-10T03:14:30.744Z,12.15
2019-04-10T03:15:12.553Z,12.15
2019-04-10T03:15:51.880Z,12.16
2019-04-10T03:16:31.987Z,12.19
2019-04-10T03:17:12.433Z,12.16
2019-04-10T03:17:52.830Z,12.12
2019-04-10T03:18:33.282Z,12.13
2019-04-10T03:19:13.708Z,12.12
2019-04-10T03:21:27.007Z,12.16
2019-04-10T03:22:09.031Z,12.12
2019-04-10T03:22:49.269Z,12.15
2019-04-10T03:23:29.470Z,12.15
2019-04-10T03:24:09.754Z,12.05
2019-04-10T03:24:50.640Z,12.15
2019-04-10T03:25:30.524Z,12.26
2019-04-10T03:26:10.968Z,12.12
2019-04-10T03:26:52.137Z,12.21
2019-04-10T03:27:31.804Z,12
2019-04-10T03:28:12.222Z,12.11
2019-04-10T03:28:53.509Z,12.07
2019-04-10T03:29:33.067Z,12.01
2019-04-10T03:30:15.238Z,12.11
2019-04-10T03:30:55.907Z,12.01
2019-04-10T03:31:36.865Z,12.07
2019-04-10T03:32:16.734Z,11.96
2019-04-10T03:33:02.520Z,11.98
2019-04-10T03:33:40.368Z,11.9
2019-04-10T03:34:20.753Z,11.79
2019-04-10T03:34:58.495Z,11.69
2019-04-10T03:35:38.820Z,11.66
2019-04-10T03:36:19.174Z,11.62
2019-04-10T03:36:59.988Z,11.57
2019-04-10T03:37:40.331Z,11.57
2019-04-10T03:38:20.295Z,11.48
2019-04-10T03:39:04.579Z,11.31
2019-04-10T03:39:41.137Z,11.41
2019-04-10T03:40:21.681Z,11.45
2019-04-10T03:41:02.066Z,11.53
2019-04-10T03:41:42.379Z,11.45
2019-04-10T03:42:23.193Z,11.51
2019-04-10T03:43:03.507Z,11.56
2019-04-10T03:43:43.826Z,11.6
2019-04-10T03:44:24.965Z,11.56
2019-04-10T03:45:05.543Z,11.53
2019-04-10T03:45:44.992Z,11.44
2019-04-10T03:46:25.668Z,11.51
2019-04-10T03:47:07.025Z,11.51
2019-04-10T03:47:47.402Z,11.41
2019-04-10T03:48:27.678Z,11.46
2019-04-10T03:49:08.108Z,11.56
2019-04-10T03:49:48.546Z,11.62
2019-04-10T03:50:29.959Z,11.72
2019-04-10T03:51:09.371Z,11.77
2019-04-10T03:51:49.810Z,11.66
2019-04-10T03:52:30.193Z,11.72
2019-04-10T03:53:10.754Z,11.74
2019-04-10T03:53:51.045Z,11.75
2019-04-10T03:54:32.207Z,11.81
2019-04-10T03:55:12.520Z,11.9
2019-04-10T03:55:52.292Z,11.93
2019-04-10T03:56:33.885Z,11.98
2019-04-10T03:57:13.969Z,11.88
2019-04-10T03:57:53.575Z,11.87
2019-04-10T03:58:33.966Z,11.85
2019-04-10T03:59:14.379Z,11.9
2019-04-10T03:59:55.727Z,11.78
2019-04-10T04:00:36.263Z,11.72
2019-04-10T04:01:16.517Z,11.77
2019-04-10T04:01:56.004Z,11.77
2019-04-10T04:02:36.405Z,11.77
2019-04-10T04:03:16.797Z,11.78
2019-04-10T04:03:57.295Z,11.64
2019-04-10T04:04:37.739Z,11.62
2019-04-10T04:05:18.315Z,11.62
2019-04-10T04:06:00.016Z,11.51
2019-04-10T04:06:39.819Z,11.53
2019-04-10T04:07:19.317Z,11.38
2019-04-10T04:07:59.695Z,11.38
2019-04-10T04:08:40.080Z,11.38
2019-04-10T04:09:21.577Z,11.36
2019-04-10T04:10:00.923Z,11.31
2019-04-10T04:10:41.410Z,11.27
2019-04-10T04:11:22.031Z,11.31
2019-04-10T04:12:02.439Z,11.2
2019-04-10T04:12:43.328Z,11.16
2019-04-10T04:13:23.762Z,11.24
2019-04-10T04:14:04.154Z,11.23
2019-04-10T04:14:47.174Z,11.23
2019-04-10T04:15:28.173Z,11.19
2019-04-10T04:16:08.807Z,11.26
2019-04-10T04:16:49.119Z,11.21
2019-04-10T04:17:28.847Z,11.23
2019-04-10T04:18:09.328Z,11.19
2019-04-10T04:18:49.760Z,11.2
2019-04-10T04:19:31.035Z,11.17
2019-04-10T04:20:10.772Z,11.19
2019-04-10T04:20:51.116Z,11.16
2019-04-10T04:21:32.019Z,11.16
2019-04-10T04:22:12.519Z,11.08
2019-04-10T04:22:52.889Z,11.16
2019-04-10T04:23:32.738Z,11.09
2019-04-10T04:24:13.195Z,11.08
2019-04-10T04:24:53.613Z,11.12
2019-04-10T04:25:34.499Z,11.11
2019-04-10T04:26:15.174Z,10.99
2019-04-10T04:26:55.602Z,10.9
2019-04-10T04:27:36.023Z,10.91
2019-04-10T05:06:24.331Z,10.44
2019-04-10T05:07:04.925Z,10.51
2019-04-10T05:07:54.514Z,10.57
2019-04-10T05:08:26.009Z,10.66
2019-04-10T05:09:06.791Z,10.68
2019-04-10T05:09:46.464Z,10.7
2019-04-10T05:10:26.861Z,10.69
2019-04-10T05:11:07.274Z,10.73
2019-04-10T05:11:47.680Z,10.84
2019-04-10T05:12:28.133Z,10.81
2019-04-10T05:13:08.525Z,10.84
2019-04-10T05:13:49.190Z,10.88
2019-04-10T05:14:29.548Z,10.95
2019-04-10T05:15:14.240Z,11.02
2019-04-10T05:15:55.744Z,10.94
2019-04-10T05:16:36.088Z,10.93
2019-04-10T05:17:18.234Z,10.93
2019-04-10T05:17:57.610Z,10.95
2019-04-10T05:18:37.570Z,11.05
2019-04-10T05:19:18.939Z,11.06
2019-04-10T05:19:58.693Z,11.19
2019-04-10T05:20:45.114Z,11.08
2019-04-10T05:21:19.894Z,11.19
2019-04-10T05:22:00.335Z,11.19
2019-04-10T05:22:41.606Z,11.2
2019-04-10T05:23:22.268Z,11.19
2019-04-10T05:24:01.571Z,11.16
2019-04-10T05:24:42.474Z,11.28
2019-04-10T05:25:22.422Z,11.38
2019-04-10T05:26:02.829Z,11.39
2019-04-10T05:26:43.254Z,11.57
2019-04-10T05:27:24.680Z,11.63
2019-04-10T05:28:04.115Z,11.63
2019-04-10T05:28:46.378Z,11.79
2019-04-10T05:29:28.180Z,11.88
2019-04-10T05:30:06.295Z,12.04
2019-04-10T05:30:46.663Z,12.11
2019-04-10T05:31:27.707Z,12.15
2019-04-10T05:32:07.618Z,12.33
2019-04-10T05:32:47.971Z,12.43
2019-04-10T05:33:28.927Z,12.44
2019-04-10T05:34:09.923Z,12.56
2019-04-10T05:34:50.456Z,12.55
2019-04-10T05:35:30.741Z,12.71
2019-04-10T05:36:11.203Z,12.79
2019-04-10T05:36:51.548Z,12.85
2019-04-10T05:37:31.967Z,12.85
2019-04-10T05:38:12.382Z,12.88
2019-04-10T05:38:52.793Z,12.94
2019-04-10T05:39:40.414Z,12.95
2019-04-10T05:40:13.760Z,12.94
2019-04-10T05:40:55.106Z,13.07
2019-04-10T05:41:34.616Z,13.13
2019-04-10T05:42:17.188Z,13.07
2019-04-10T05:42:57.881Z,13.06
2019-04-10T05:43:38.410Z,12.96
2019-04-10T05:46:20.688Z,12.85
2019-04-10T05:46:59.887Z,12.74
2019-04-10T05:47:40.294Z,12.74
2019-04-10T05:48:26.453Z,12.76
2019-04-10T05:49:06.714Z,12.77
2019-04-10T05:49:47.451Z,12.8
2019-04-10T05:50:28.545Z,12.84
2019-04-10T05:51:09.465Z,12.79
2019-04-10T05:51:51.214Z,12.79
2019-04-10T05:52:31.649Z,12.67
2019-04-10T05:53:12.180Z,12.66
2019-04-10T05:53:55.093Z,12.62
2019-04-10T05:54:35.252Z,12.67
2019-04-10T05:55:14.670Z,12.58
2019-04-10T05:55:55.850Z,12.73
2019-04-10T05:56:38.398Z,12.59
2019-04-10T05:57:20.260Z,12.61
2019-04-10T05:58:01.627Z,12.7
2019-04-10T05:58:42.624Z,12.71
2019-04-10T05:59:22.193Z,12.73
2019-04-10T06:00:02.820Z,12.77
2019-04-10T06:00:45.015Z,12.8
2019-04-10T06:01:32.103Z,12.92
2019-04-10T06:02:07.648Z,13.06
2019-04-10T06:02:47.893Z,13.16
2019-04-10T06:05:05.660Z,13.35
2019-04-10T06:05:46.526Z,13.39
2019-04-10T06:06:26.501Z,13.48
2019-04-10T06:07:06.922Z,13.51
2019-04-10T06:07:47.539Z,13.62
2019-04-10T06:08:27.747Z,13.44
2019-04-10T06:09:08.864Z,13.47
2019-04-10T06:09:55.495Z,13.61
2019-04-10T06:10:30.169Z,13.72
2019-04-10T06:11:10.760Z,13.72
2019-04-10T06:11:53.213Z,13.91
2019-04-10T06:12:34.045Z,13.94
2019-04-10T06:13:15.689Z,13.98
2019-04-10T06:13:56.909Z,13.96
2019-04-10T06:14:39.878Z,13.99
2019-04-10T06:15:21.072Z,13.98
2019-04-10T06:16:01.823Z,13.91
2019-04-10T06:16:42.672Z,13.93
2019-04-10T06:17:24.836Z,13.94
2019-04-10T06:18:07.042Z,13.94
2019-04-10T06:18:47.163Z,13.94
2019-04-10T06:19:27.343Z,13.96
2019-04-10T06:20:09.025Z,13.91
2019-04-10T06:20:49.289Z,13.87
2019-04-10T06:21:31.378Z,13.98
2019-04-10T06:22:12.805Z,13.94
2019-04-10T06:24:32.201Z,14.13
2019-04-10T06:25:13.886Z,14.12
2019-04-10T06:25:54.115Z,14.2
2019-04-10T06:26:35.558Z,14.39
2019-04-10T06:27:16.376Z,14.53
2019-04-10T06:27:56.838Z,14.6
2019-04-10T06:28:37.919Z,14.6
2019-04-10T06:29:19.169Z,14.74
2019-04-10T06:29:59.406Z,14.97
2019-04-10T06:30:39.814Z,14.97
2019-04-10T06:31:20.722Z,14.8
2019-04-10T06:32:01.109Z,14.71
2019-04-10T06:32:40.954Z,14.94
2019-04-10T06:33:22.195Z,14.97
2019-04-10T06:34:01.909Z,15.09
2019-04-10T06:34:46.167Z,15.22
2019-04-10T06:35:26.401Z,15.28
2019-04-10T06:36:09.142Z,15.33
2019-04-10T06:36:49.411Z,15.34
2019-04-10T06:37:31.105Z,15.3
2019-04-10T06:38:10.780Z,15.3
2019-04-10T06:38:52.982Z,15.37
2019-04-10T06:39:31.666Z,15.43
2019-04-10T06:40:18.580Z,15.37
2019-04-10T06:40:54.395Z,15.31
2019-04-10T06:41:34.843Z,15.34
2019-04-10T06:42:16.311Z,15.2
2019-04-10T06:42:56.776Z,15.18
2019-04-10T06:43:37.302Z,15.18
2019-04-10T06:44:21.771Z,15.22
2019-04-10T06:45:01.475Z,15.13
2019-04-10T06:45:44.784Z,15.22
2019-04-10T06:46:26.119Z,15.22
2019-04-10T06:47:07.633Z,15.22
2019-04-10T06:47:48.594Z,15.3
2019-04-10T06:48:27.971Z,15.31
2019-04-10T06:49:09.253Z,15.35
2019-04-10T06:49:48.861Z,15.31
2019-04-10T06:50:31.469Z,15.41
2019-04-10T06:51:10.739Z,15.48
2019-04-10T06:51:51.460Z,15.43
2019-04-10T06:52:32.615Z,15.43
2019-04-10T06:53:14.669Z,15.34
2019-04-10T06:54:00.686Z,15.4
2019-04-10T06:54:33.762Z,15.33
2019-04-10T06:55:15.335Z,15.46
2019-04-10T06:55:56.455Z,15.33
2019-04-10T06:56:35.865Z,15.41
2019-04-10T06:57:16.689Z,15.37
2019-04-10T06:57:58.012Z,15.41
2019-04-10T06:58:40.879Z,15.49
2019-04-10T06:59:21.205Z,15.51
2019-04-10T07:00:02.261Z,15.41
2019-04-10T07:00:48.510Z,15.41
2019-04-10T07:01:38.896Z,15.44
2019-04-10T07:02:16.482Z,15.31
2019-04-10T07:02:47.399Z,15.41
2019-04-10T07:03:44.744Z,15.28
2019-04-10T07:04:11.396Z,15.3
2019-04-10T07:04:55.741Z,15.34
2019-04-10T07:05:40.696Z,15.3
2019-04-10T07:06:17.481Z,15.33
2019-04-10T07:07:00.615Z,15.37
2019-04-10T07:07:44.876Z,15.4
2019-04-10T07:08:19.800Z,15.46
2019-04-10T07:08:57.250Z,15.43
2019-04-10T07:09:37.913Z,15.43
2019-04-10T07:10:25.609Z,15.4
2019-04-10T07:11:03.769Z,15.48
2019-04-10T07:11:39.795Z,15.55
2019-04-10T07:12:29.464Z,15.53
2019-04-10T07:13:09.121Z,15.55
2019-04-10T07:13:47.155Z,15.62
2019-04-10T07:14:27.200Z,15.62
2019-04-10T07:15:08.549Z,15.68
2019-04-10T07:15:49.767Z,15.8
2019-04-10T07:16:31.336Z,15.81
2019-04-10T07:17:10.622Z,15.84
2019-04-10T07:17:51.938Z,15.86
2019-04-10T07:18:33.362Z,15.88
2019-04-10T07:19:13.770Z,15.95
2019-04-10T07:19:54.206Z,15.98
2019-04-10T07:20:36.408Z,15.91
2019-04-10T07:21:20.048Z,15.99
2019-04-10T07:22:01.389Z,16.01
2019-04-10T07:22:46.413Z,16.03
2019-04-10T07:23:28.488Z,16.1
2019-04-10T07:24:06.539Z,16.03
2019-04-10T07:24:46.097Z,16.04
2019-04-10T07:25:26.360Z,15.93
2019-04-10T07:26:06.906Z,15.95
2019-04-10T07:26:48.988Z,16.06
2019-04-10T07:27:32.698Z,16.03
2019-04-10T07:28:12.553Z,15.92
2019-04-10T07:28:57.669Z,15.89
2019-04-10T07:29:40.390Z,15.84
2019-04-10T07:30:24.011Z,15.66
2019-04-10T07:31:07.154Z,15.6
2019-04-10T07:31:44.647Z,15.56
2019-04-10T07:32:24.305Z,15.58
2019-04-10T07:33:05.454Z,15.46
2019-04-10T07:33:50.001Z,15.38
2019-04-10T07:34:28.453Z,15.34
2019-04-10T07:35:06.731Z,15.44
2019-04-10T07:35:46.445Z,15.44
2019-04-10T07:36:26.685Z,15.49
2019-04-10T07:37:08.534Z,15.59
2019-04-10T07:37:51.514Z,15.85
2019-04-10T07:38:27.881Z,15.93
2019-04-10T07:39:08.354Z,15.98
2019-04-10T07:39:48.915Z,16.01
2019-04-10T07:40:32.950Z,16.16
2019-04-10T07:41:14.258Z,16.23
2019-04-10T07:41:50.182Z,16.42
2019-04-10T07:42:34.335Z,16.44
2019-04-10T07:43:11.197Z,16.54
2019-04-10T07:43:54.197Z,16.73
2019-04-10T07:44:31.920Z,16.72
2019-04-10T07:45:12.350Z,16.75
2019-04-10T07:45:56.554Z,16.81
2019-04-10T07:46:33.231Z,16.91
2019-04-10T07:47:13.674Z,16.9
2019-04-10T07:47:54.103Z,16.99
2019-04-10T07:48:35.589Z,16.9
2019-04-10T07:49:17.654Z,16.99
2019-04-10T07:49:59.440Z,17.1
2019-04-10T07:50:37.403Z,17.12
2019-04-10T07:51:19.515Z,17.15
2019-04-10T07:52:02.153Z,17.12
2019-04-10T07:52:41.474Z,17.12
2019-04-10T07:53:22.624Z,17.15
2019-04-10T07:54:02.207Z,17.3
2019-04-10T07:54:44.645Z,17.33
2019-04-10T07:55:23.818Z,17.32
2019-04-10T07:56:07.480Z,17.36
2019-04-10T07:56:44.334Z,17.39
2019-04-10T07:57:24.821Z,17.38
2019-04-10T07:58:08.959Z,17.28
2019-04-10T07:58:50.039Z,17.35
2019-04-10T07:59:31.259Z,17.33
2019-04-10T08:00:11.133Z,17.27
2019-04-10T08:00:54.140Z,17.22
2019-04-10T08:01:35.423Z,17.28
2019-04-10T08:02:14.981Z,17.33
2019-04-10T08:02:55.835Z,17.4
2019-04-10T08:03:37.303Z,17.35
2019-04-10T08:04:16.684Z,17.39
2019-04-10T08:05:00.095Z,17.4
2019-04-10T08:05:40.505Z,17.36
2019-04-10T08:06:23.473Z,17.22
2019-04-10T08:07:05.190Z,17.14
2019-04-10T08:07:45.337Z,16.91
2019-04-10T08:08:25.883Z,17.05
2019-04-10T08:09:06.276Z,16.99
2019-04-10T08:09:49.718Z,16.95
2019-04-10T08:10:30.579Z,16.99
2019-04-10T08:11:13.280Z,16.95
2019-04-10T08:11:54.377Z,16.95
2019-04-10T08:12:42.290Z,16.88
2019-04-10T08:13:14.192Z,16.95
2019-04-10T08:13:56.024Z,16.91
2019-04-10T08:14:35.723Z,16.87
2019-04-10T08:15:15.409Z,16.9
2019-04-10T08:15:56.304Z,17
2019-04-10T08:16:36.830Z,16.99
2019-04-10T08:17:17.456Z,17.12
2019-04-10T08:17:58.279Z,17.06
2019-04-10T08:18:39.341Z,17.06
2019-04-10T08:19:18.787Z,17.18
2019-04-10T08:20:00.179Z,17.17
2019-04-10T08:20:40.704Z,17.1
2019-04-10T08:21:24.602Z,17.1
2019-04-10T08:22:06.155Z,17.12
2019-04-10T08:22:46.825Z,17.2
2019-04-10T08:23:28.099Z,17.32
2019-04-10T08:24:09.437Z,17.42
2019-04-10T08:24:51.216Z,17.36
2019-04-10T08:26:38.784Z,17.54
2019-04-10T08:27:19.358Z,17.68
2019-04-10T08:28:00.771Z,17.81
2019-04-10T08:28:43.301Z,17.91
2019-04-10T08:29:23.873Z,18.09
2019-04-10T08:30:05.323Z,18.17
2019-04-10T08:30:46.257Z,18.31
2019-04-10T08:31:28.709Z,18.16
2019-04-10T08:32:09.791Z,18.31
2019-04-10T08:32:56.933Z,18.26
2019-04-10T08:33:30.641Z,18.32
2019-04-10T08:34:13.099Z,18.47
2019-04-10T08:34:53.986Z,18.64
2019-04-10T08:35:34.394Z,18.69
2019-04-10T08:36:15.121Z,18.89
2019-04-10T08:36:56.670Z,18.83
2019-04-10T08:37:36.853Z,18.9
2019-04-10T08:38:17.645Z,18.97
2019-04-10T08:38:59.131Z,18.97
2019-04-10T08:39:44.823Z,19.07
2019-04-10T08:40:21.655Z,19.09
2019-04-10T08:41:02.803Z,19.31
2019-04-10T08:41:43.698Z,19.55
2019-04-10T08:42:24.442Z,19.62
2019-04-10T08:43:04.822Z,19.7
2019-04-10T08:43:45.964Z,19.92
2019-04-10T08:44:27.711Z,20.04
2019-04-10T08:45:07.365Z,19.9
2019-04-10T08:45:52.012Z,19.97
2019-04-10T08:46:30.295Z,20.08
2019-04-10T08:47:10.992Z,19.98
2019-04-10T08:47:50.925Z,20.12
2019-04-10T08:48:33.205Z,20.13
2019-04-10T08:49:14.341Z,20.26
2019-04-10T08:49:54.946Z,20.31
2019-04-10T08:50:34.559Z,20.38
2019-04-10T08:51:15.096Z,20.46
2019-04-10T08:51:55.631Z,20.27
2019-04-10T08:52:36.968Z,19.79
2019-04-10T08:53:16.447Z,19.9
2019-04-10T08:53:56.987Z,19.97
2019-04-10T08:54:38.376Z,20.12
2019-04-10T08:55:17.951Z,20.1
2019-04-10T08:55:58.984Z,20.3
2019-04-10T08:56:40.721Z,20.48
2019-04-10T08:57:21.448Z,20.71
2019-04-10T08:58:01.312Z,20.76
2019-04-10T08:58:43.368Z,20.75
2019-04-10T08:59:23.805Z,20.82
2019-04-10T09:00:04.674Z,20.79
2019-04-10T09:00:44.878Z,20.91
2019-04-10T09:01:26.126Z,20.98
2019-04-10T09:02:06.633Z,21.01
2019-04-10T09:02:47.063Z,21.09
2019-04-10T09:03:27.732Z,21.21
2019-04-10T09:04:08.154Z,21.15
2019-04-10T09:04:48.973Z,21.27
2019-04-10T09:05:31.723Z,21.01
2019-04-10T09:06:13.263Z,21
2019-04-10T09:06:52.577Z,20.94
2019-04-10T09:07:33.413Z,20.58
2019-04-10T09:08:14.884Z,20.37
2019-04-10T09:08:54.178Z,20.37
2019-04-10T09:09:35.178Z,20.26
2019-04-10T09:10:16.330Z,20.31
2019-04-10T09:10:55.673Z,20.46
2019-04-10T09:11:36.199Z,20.61
2019-04-10T09:12:17.817Z,20.68
2019-04-10T09:12:59.929Z,20.87
2019-04-10T09:13:40.994Z,21.06
2019-04-10T09:14:21.146Z,21.19
2019-04-10T09:15:02.014Z,21.21
2019-04-10T09:15:43.774Z,21.27
2019-04-10T09:16:24.766Z,21.36
2019-04-10T09:17:05.442Z,21.51
2019-04-10T09:17:47.186Z,21.71
2019-04-10T09:18:27.662Z,21.77
2019-04-10T09:19:08.044Z,21.71
2019-04-10T09:19:49.877Z,21.85
2019-04-10T09:20:30.989Z,21.85
2019-04-10T09:21:11.432Z,21.85
2019-04-10T09:21:55.416Z,21.86
2019-04-10T09:22:49.689Z,21.85
2019-04-10T09:23:24.921Z,21.81
2019-04-10T09:23:57.639Z,22.04
2019-04-10T09:24:36.639Z,22.14
2019-04-10T09:25:17.819Z,22.3
2019-04-10T09:25:58.057Z,22.36
2019-04-10T09:26:38.901Z,22.31
2019-04-10T09:27:21.337Z,22.35
2019-04-10T09:28:04.212Z,22.33
2019-04-10T09:28:43.616Z,22.06
2019-04-10T09:29:25.671Z,22.06
2019-04-10T09:30:06.667Z,21.99
2019-04-10T09:30:45.867Z,21.94
2019-04-10T09:31:26.207Z,21.55
2019-04-10T09:32:08.391Z,21.37
2019-04-10T09:32:47.565Z,21.21
2019-04-10T09:33:30.744Z,20.69
2019-04-10T09:34:09.599Z,20.1
2019-04-10T09:34:49.892Z,19.92
2019-04-10T09:35:30.848Z,19.71
2019-04-10T09:36:13.187Z,19.79
2019-04-10T09:36:53.432Z,19.72
2019-04-10T09:37:34.922Z,20.04
2019-04-10T09:38:17.193Z,20.26
2019-04-10T09:38:59.075Z,20.44
2019-04-10T09:39:39.169Z,20.48